Terminal Aerodrome Forecast
Issued by NWS

Home | Current Version | Previous Version | Text Only | Print | Product List | Glossary On
Versions: 1 2 3 4 5 6 7 8 9 10 11 12 13 14 15 16
408
FTAK31 PAJN 251734
TAFAJN
TAF
PAJN 251734Z 2518/2618 VRB04KT 6SM -SN BKN025 OVC040
      TEMPO 2518/2520 3SM -SN
     FM252000 11007KT P6SM VCSH SCT030 BKN060
     FM252300 12007KT P6SM -SHRA OVC045
     FM260600 10006KT P6SM -SHSN SCT035 OVC050
     FM261100 VRB04KT P6SM BKN080=

USA.gov is the U.S. government's official web portal to all federal, state and local government web resources and services.